createdAt,value
2023-03-29T00:00:37.654Z,22.34
2023-03-29T00:04:37.654Z,22.28
2023-03-29T00:08:37.601Z,22.34
2023-03-29T00:12:37.530Z,22.30
2023-03-29T00:16:37.543Z,22.25
2023-03-29T00:20:37.477Z,22.29
2023-03-29T00:24:37.453Z,22.33
2023-03-29T00:28:37.399Z,22.31
2023-03-29T00:32:37.452Z,22.26
2023-03-29T00:36:37.502Z,22.28
2023-03-29T00:40:37.724Z,22.25
2023-03-29T00:44:37.912Z,22.28
2023-03-29T00:48:38.102Z,22.29
2023-03-29T00:52:38.056Z,22.30
2023-03-29T00:56:38.070Z,22.28
2023-03-29T01:00:37.992Z,22.30
2023-03-29T01:04:38.003Z,22.25
2023-03-29T01:08:37.946Z,22.28
2023-03-29T01:12:37.889Z,22.30
2023-03-29T01:16:37.919Z,22.30
2023-03-29T01:20:37.809Z,22.27
2023-03-29T01:24:37.784Z,22.27
2023-03-29T01:28:37.730Z,22.30
2023-03-29T01:32:37.797Z,22.24
2023-03-29T01:36:37.694Z,22.30
2023-03-29T01:40:37.817Z,22.25
2023-03-29T01:44:37.923Z,22.28
2023-03-29T01:48:38.075Z,22.30
2023-03-29T01:52:38.058Z,22.25
2023-03-29T01:56:38.190Z,22.28
2023-03-29T02:00:38.273Z,22.28
2023-03-29T02:04:38.298Z,22.24
2023-03-29T02:08:38.511Z,22.25
2023-03-29T02:12:38.591Z,22.24
2023-03-29T02:16:38.787Z,22.25
2023-03-29T02:20:38.887Z,22.27
2023-03-29T02:24:38.935Z,22.31
2023-03-29T02:28:38.944Z,22.27
2023-03-29T02:32:39.125Z,22.22
2023-03-29T02:36:39.151Z,22.27
2023-03-29T02:40:39.240Z,22.24
2023-03-29T02:44:39.319Z,22.19
2023-03-29T02:48:39.450Z,22.22
2023-03-29T02:52:39.496Z,22.23
2023-03-29T02:56:39.587Z,22.19
2023-03-29T03:00:39.631Z,22.15
2023-03-29T03:04:39.744Z,22.25
2023-03-29T03:08:39.792Z,22.17
2023-03-29T03:12:39.753Z,22.22
2023-03-29T03:16:39.774Z,22.19
2023-03-29T03:20:39.732Z,22.17
2023-03-29T03:24:39.747Z,22.20
2023-03-29T03:28:39.774Z,22.19
2023-03-29T03:32:39.780Z,22.16
2023-03-29T03:36:39.824Z,22.23
2023-03-29T03:40:39.788Z,22.10
2023-03-29T03:44:39.777Z,22.13
2023-03-29T03:48:39.751Z,22.13
2023-03-29T03:52:39.727Z,22.13
2023-03-29T03:56:39.752Z,22.13
2023-03-29T04:00:39.705Z,22.10
2023-03-29T04:04:39.657Z,22.08
2023-03-29T04:08:39.642Z,22.10
2023-03-29T04:12:39.655Z,22.13
2023-03-29T04:16:39.683Z,22.08
2023-03-29T04:20:39.695Z,22.01
2023-03-29T04:24:39.703Z,22.01
2023-03-29T04:28:39.719Z,22.05
2023-03-29T04:32:39.790Z,22.00
2023-03-29T04:36:39.730Z,21.99
2023-03-29T04:40:39.756Z,22.01
2023-03-29T04:44:39.774Z,21.95
2023-03-29T04:48:39.716Z,21.91
2023-03-29T04:52:39.724Z,21.89
2023-03-29T04:56:39.770Z,21.85
2023-03-29T05:00:39.740Z,21.86
2023-03-29T05:04:39.767Z,21.84
2023-03-29T05:08:39.704Z,21.84
2023-03-29T05:12:39.688Z,21.78
2023-03-29T05:16:39.741Z,21.78
2023-03-29T05:20:39.692Z,21.74
2023-03-29T05:24:39.666Z,21.67
2023-03-29T05:28:39.686Z,21.64
2023-03-29T05:32:39.735Z,21.70
2023-03-29T05:36:39.785Z,21.74
2023-03-29T05:40:39.767Z,22.05
2023-03-29T05:44:39.842Z,24.08
2023-03-29T05:48:39.947Z,23.61
2023-03-29T05:52:40.188Z,23.94
2023-03-29T05:56:40.183Z,24.30
2023-03-29T06:00:40.207Z,25.14
2023-03-29T06:04:39.998Z,25.73
2023-03-29T06:08:40.190Z,26.25
2023-03-29T06:12:39.759Z,26.93
2023-03-29T06:16:42.129Z,27.46
2023-03-29T06:20:39.731Z,27.87
2023-03-29T06:24:39.648Z,28.27
2023-03-29T06:28:39.638Z,28.60
2023-03-29T06:32:39.594Z,29.04
2023-03-29T06:36:39.557Z,29.60
2023-03-29T06:40:39.544Z,30.08
2023-03-29T06:44:39.466Z,30.57
2023-03-29T06:48:39.695Z,30.60
2023-03-29T06:52:39.707Z,30.52
2023-03-29T06:56:39.451Z,31.02
2023-03-29T07:00:39.296Z,31.50
2023-03-29T07:04:39.787Z,22.84
2023-03-29T07:08:39.232Z,24.99
2023-03-29T07:12:39.693Z,26.67
2023-03-29T07:16:39.291Z,27.66
2023-03-29T07:20:39.730Z,27.94
2023-03-29T07:24:39.694Z,28.36
2023-03-29T07:28:39.926Z,29.02
2023-03-29T07:32:39.703Z,29.28
2023-03-29T07:36:39.681Z,29.46
2023-03-29T07:40:40.230Z,29.78
2023-03-29T07:44:40.242Z,29.76
2023-03-29T07:48:40.711Z,29.82
2023-03-29T07:52:39.808Z,29.82
2023-03-29T07:56:39.825Z,23.28
2023-03-29T08:00:40.262Z,25.96
2023-03-29T08:04:39.700Z,27.91
2023-03-29T08:08:39.626Z,28.46
2023-03-29T08:12:39.608Z,28.58
2023-03-29T08:16:39.596Z,28.88
2023-03-29T08:20:39.556Z,28.72
2023-03-29T08:24:39.539Z,28.93
2023-03-29T08:28:39.502Z,29.44
2023-03-29T08:32:39.706Z,29.81
2023-03-29T08:36:40.273Z,30.33
2023-03-29T08:40:39.821Z,30.05
2023-03-29T08:44:39.772Z,30.33
2023-03-29T08:48:39.744Z,30.83
2023-03-29T08:52:39.820Z,30.87
2023-03-29T08:56:39.790Z,24.88
2023-03-29T09:00:39.628Z,27.20
2023-03-29T09:04:39.594Z,28.53
2023-03-29T09:08:39.752Z,29.26
2023-03-29T09:12:39.531Z,29.85
2023-03-29T09:16:39.497Z,29.99
2023-03-29T09:20:39.486Z,30.28
2023-03-29T09:24:39.417Z,31.21
2023-03-29T09:28:39.778Z,32.13
2023-03-29T09:32:39.459Z,33.01
2023-03-29T09:36:39.598Z,34.01
2023-03-29T09:40:40.249Z,34.12
2023-03-29T09:44:40.266Z,33.96
2023-03-29T09:48:40.290Z,27.59
2023-03-29T09:52:40.251Z,23.91
2023-03-29T09:56:40.357Z,24.41
2023-03-29T10:00:40.449Z,24.33
2023-03-29T10:04:40.647Z,25.34
2023-03-29T10:08:40.658Z,25.39
2023-03-29T10:12:40.837Z,25.72
2023-03-29T10:16:41.098Z,25.90
2023-03-29T10:20:41.203Z,25.89
2023-03-29T10:24:41.425Z,25.96
2023-03-29T10:28:41.448Z,26.14
2023-03-29T10:32:41.619Z,26.28
2023-03-29T10:36:41.894Z,26.34
2023-03-29T10:40:41.638Z,26.42
2023-03-29T10:44:41.689Z,26.49
2023-03-29T10:48:41.760Z,26.38
2023-03-29T10:52:41.853Z,26.27
2023-03-29T10:56:41.994Z,26.14
2023-03-29T11:00:42.803Z,26.22
2023-03-29T11:04:42.128Z,26.28
2023-03-29T11:08:42.178Z,26.26
2023-03-29T11:12:42.315Z,26.34
2023-03-29T11:16:42.801Z,26.28
2023-03-29T11:20:42.480Z,26.23
2023-03-29T11:24:42.561Z,26.29
2023-03-29T11:28:42.795Z,26.44
2023-03-29T11:32:43.362Z,27.19
2023-03-29T11:36:43.380Z,27.31
2023-03-29T11:40:43.052Z,27.41
2023-03-29T11:44:43.180Z,27.32
2023-03-29T11:48:43.282Z,27.14
2023-03-29T11:52:43.323Z,26.88
2023-03-29T11:56:43.431Z,26.72
2023-03-29T12:00:43.512Z,26.72
2023-03-29T12:04:43.624Z,26.60
2023-03-29T12:08:43.690Z,26.58
2023-03-29T12:12:43.773Z,26.43
2023-03-29T12:16:43.923Z,26.35
2023-03-29T12:20:43.895Z,26.32
2023-03-29T12:24:43.990Z,26.26
2023-03-29T12:28:44.082Z,26.19
2023-03-29T12:32:44.111Z,26.21
2023-03-29T12:36:44.167Z,26.06
2023-03-29T12:40:44.248Z,26.03
2023-03-29T12:44:44.277Z,26.00
2023-03-29T12:48:44.357Z,25.91
2023-03-29T12:52:44.400Z,25.94
2023-03-29T12:56:44.521Z,25.68
2023-03-29T13:00:44.461Z,25.03
2023-03-29T13:04:44.531Z,23.80
2023-03-29T13:08:44.698Z,24.31
2023-03-29T13:12:44.781Z,24.33
2023-03-29T13:16:45.004Z,24.71
2023-03-29T13:20:45.126Z,24.88
2023-03-29T13:24:45.140Z,25.14
2023-03-29T13:28:45.169Z,25.39
2023-03-29T13:32:45.331Z,25.21
2023-03-29T13:36:45.369Z,25.34
2023-03-29T13:40:45.469Z,25.41
2023-03-29T13:44:45.587Z,25.35
2023-03-29T13:48:45.672Z,25.41
2023-03-29T13:52:45.862Z,25.58
2023-03-29T13:56:45.980Z,25.57
2023-03-29T14:00:46.158Z,25.58
2023-03-29T14:04:46.282Z,25.55
2023-03-29T14:08:46.474Z,25.58
2023-03-29T14:12:46.603Z,25.60
2023-03-29T14:16:46.863Z,25.54
2023-03-29T14:20:47.048Z,25.55
2023-03-29T14:24:47.168Z,25.49
2023-03-29T14:28:47.313Z,25.41
2023-03-29T14:32:47.575Z,25.43
2023-03-29T14:36:47.716Z,25.51
2023-03-29T14:40:47.880Z,25.57
2023-03-29T14:44:48.093Z,25.54
2023-03-29T14:48:48.272Z,25.56
2023-03-29T14:52:50.339Z,25.63
2023-03-29T14:56:48.498Z,25.60
2023-03-29T15:00:48.383Z,25.58
2023-03-29T15:04:48.449Z,25.59
2023-03-29T15:09:01.479Z,25.60
2023-03-29T15:12:49.238Z,25.63
2023-03-29T15:16:48.195Z,25.60
2023-03-29T15:20:48.310Z,25.67
2023-03-29T15:24:48.527Z,25.65
2023-03-29T15:28:48.726Z,25.61
2023-03-29T15:32:48.985Z,25.59
2023-03-29T15:36:49.155Z,25.56
2023-03-29T15:40:49.324Z,25.62
2023-03-29T15:44:49.453Z,25.58
2023-03-29T15:48:49.641Z,25.60
2023-03-29T15:52:49.786Z,25.69
2023-03-29T15:56:50.057Z,25.67
2023-03-29T16:00:50.240Z,25.70
2023-03-29T16:04:50.345Z,25.69
2023-03-29T16:08:50.493Z,25.70
2023-03-29T16:12:50.725Z,25.71
2023-03-29T16:16:50.978Z,25.74
2023-03-29T16:20:51.056Z,25.73
2023-03-29T16:24:51.231Z,25.70
2023-03-29T16:28:51.401Z,25.66
2023-03-29T16:32:51.666Z,25.67
2023-03-29T16:36:51.828Z,25.64
2023-03-29T16:40:52.016Z,25.71
2023-03-29T16:44:52.187Z,25.70
2023-03-29T16:48:52.372Z,25.70
2023-03-29T16:52:52.616Z,25.72
2023-03-29T16:56:52.823Z,25.73
2023-03-29T17:00:52.948Z,25.68
2023-03-29T17:04:53.292Z,25.73
2023-03-29T17:08:53.404Z,25.73
2023-03-29T17:12:53.625Z,25.76
2023-03-29T17:16:53.837Z,25.74
2023-03-29T17:20:54.001Z,25.73
2023-03-29T17:24:54.013Z,25.75
2023-03-29T17:28:54.004Z,25.75
2023-03-29T17:32:53.942Z,25.79
2023-03-29T17:36:53.892Z,25.75
2023-03-29T17:40:53.863Z,25.78
2023-03-29T17:44:53.846Z,25.85
2023-03-29T17:48:53.822Z,25.77
2023-03-29T17:52:53.746Z,25.77
2023-03-29T17:56:53.742Z,25.84
2023-03-29T18:00:53.764Z,25.85
2023-03-29T18:04:53.667Z,25.81
2023-03-29T18:08:53.591Z,25.78
2023-03-29T18:12:53.573Z,25.81
2023-03-29T18:16:53.548Z,25.85
2023-03-29T18:20:53.515Z,25.80
2023-03-29T18:24:53.437Z,25.80
2023-03-29T18:28:53.421Z,25.84
2023-03-29T18:32:53.408Z,25.86
2023-03-29T18:36:53.363Z,25.86
2023-03-29T18:40:53.315Z,25.83
2023-03-29T18:44:53.284Z,25.87
2023-03-29T18:48:53.227Z,25.92
2023-03-29T18:52:53.261Z,25.96
2023-03-29T18:56:53.417Z,25.91
2023-03-29T19:00:53.419Z,25.98
2023-03-29T19:04:53.418Z,26.00
2023-03-29T19:08:53.442Z,26.06
2023-03-29T19:12:53.464Z,26.07
2023-03-29T19:16:53.519Z,25.98
2023-03-29T19:20:53.670Z,25.93
2023-03-29T19:24:53.715Z,25.90
2023-03-29T19:28:53.835Z,25.90
2023-03-29T19:32:53.946Z,25.93
2023-03-29T19:36:53.944Z,25.89
2023-03-29T19:40:53.973Z,25.90
2023-03-29T19:44:54.056Z,25.86
2023-03-29T19:48:54.123Z,25.87
2023-03-29T19:52:54.142Z,25.85
2023-03-29T19:56:54.243Z,25.81
2023-03-29T20:00:54.243Z,25.83
2023-03-29T20:04:54.278Z,25.86
2023-03-29T20:08:54.266Z,25.89
2023-03-29T20:12:54.263Z,25.84
2023-03-29T20:16:54.401Z,25.87
2023-03-29T20:20:54.458Z,25.87
2023-03-29T20:24:54.486Z,25.82
2023-03-29T20:28:54.486Z,25.86
2023-03-29T20:32:54.521Z,25.84
2023-03-29T20:36:54.609Z,25.87
2023-03-29T20:40:54.564Z,25.87
2023-03-29T20:44:54.649Z,25.85
2023-03-29T20:48:54.781Z,25.83
2023-03-29T20:52:54.741Z,25.85
2023-03-29T20:56:54.772Z,25.89
2023-03-29T21:00:54.731Z,25.85
2023-03-29T21:04:54.710Z,25.85
2023-03-29T21:08:54.716Z,25.83
2023-03-29T21:12:54.691Z,25.89
2023-03-29T21:16:54.739Z,25.86
2023-03-29T21:20:54.651Z,25.90
2023-03-29T21:24:54.639Z,25.85
2023-03-29T21:28:54.616Z,25.86
2023-03-29T21:32:54.607Z,25.87
2023-03-29T21:36:54.623Z,25.86
2023-03-29T21:40:54.622Z,25.82
2023-03-29T21:44:54.604Z,25.86
2023-03-29T21:48:54.574Z,25.83
2023-03-29T21:52:54.591Z,25.87
2023-03-29T21:56:54.595Z,25.83
2023-03-29T22:00:54.596Z,25.83
2023-03-29T22:04:54.534Z,25.86
2023-03-29T22:08:54.561Z,25.87
2023-03-29T22:12:54.508Z,25.91
2023-03-29T22:16:54.602Z,25.93
2023-03-29T22:20:54.490Z,25.96
2023-03-29T22:24:54.476Z,25.91
2023-03-29T22:28:54.521Z,25.92
2023-03-29T22:32:54.518Z,25.96
2023-03-29T22:36:54.482Z,25.89
2023-03-29T22:40:54.494Z,25.92
2023-03-29T22:44:54.501Z,25.92
2023-03-29T22:48:54.488Z,25.96
2023-03-29T22:52:54.581Z,25.95
2023-03-29T22:56:54.589Z,25.89
2023-03-29T23:00:54.596Z,25.96
2023-03-29T23:04:54.552Z,25.95
2023-03-29T23:08:54.562Z,25.92
2023-03-29T23:12:54.550Z,25.90
2023-03-29T23:16:54.570Z,25.92
2023-03-29T23:20:54.620Z,25.97
2023-03-29T23:24:54.604Z,25.99
2023-03-29T23:28:54.685Z,26.07
2023-03-29T23:32:54.759Z,26.06
2023-03-29T23:36:54.758Z,26.04
2023-03-29T23:40:54.802Z,26.01
2023-03-29T23:44:54.820Z,26.06
2023-03-29T23:48:54.865Z,26.01
2023-03-29T23:52:54.843Z,25.99
2023-03-29T23:56:54.927Z,25.91
